sensor_id;sensor_type;location;lat;lon;timestamp;P1;durP1;ratioP1;P2;durP2;ratioP2
49730;SDS011;35622;52.008;5.426;2023-07-24T00:00:44;4.97;;;3.78;;
49730;SDS011;35622;52.008;5.426;2023-07-24T00:03:09;6.88;;;4.05;;
49730;SDS011;35622;52.008;5.426;2023-07-24T00:05:35;6.53;;;5.22;;
49730;SDS011;35622;52.008;5.426;2023-07-24T00:08:01;5.90;;;4.60;;
49730;SDS011;35622;52.008;5.426;2023-07-24T00:10:27;6.38;;;4.20;;
49730;SDS011;35622;52.008;5.426;2023-07-24T00:12:52;7.55;;;4.40;;
49730;SDS011;35622;52.008;5.426;2023-07-24T00:15:18;8.15;;;4.10;;
49730;SDS011;35622;52.008;5.426;2023-07-24T00:17:44;7.35;;;5.78;;
49730;SDS011;35622;52.008;5.426;2023-07-24T00:20:09;5.57;;;4.80;;
49730;SDS011;35622;52.008;5.426;2023-07-24T00:22:35;7.45;;;5.85;;
49730;SDS011;35622;52.008;5.426;2023-07-24T00:25:01;6.40;;;4.90;;
49730;SDS011;35622;52.008;5.426;2023-07-24T00:27:26;5.18;;;4.32;;
49730;SDS011;35622;52.008;5.426;2023-07-24T00:29:52;6.03;;;4.80;;
49730;SDS011;35622;52.008;5.426;2023-07-24T00:32:18;5.72;;;4.82;;
49730;SDS011;35622;52.008;5.426;2023-07-24T00:34:43;6.93;;;4.85;;
49730;SDS011;35622;52.008;5.426;2023-07-24T00:37:09;9.38;;;4.78;;
49730;SDS011;35622;52.008;5.426;2023-07-24T00:39:34;5.35;;;4.63;;
49730;SDS011;35622;52.008;5.426;2023-07-24T00:42:01;6.47;;;5.78;;
49730;SDS011;35622;52.008;5.426;2023-07-24T00:44:27;5.53;;;4.68;;
49730;SDS011;35622;52.008;5.426;2023-07-24T00:46:52;6.75;;;4.97;;
49730;SDS011;35622;52.008;5.426;2023-07-24T00:49:18;8.45;;;5.68;;
49730;SDS011;35622;52.008;5.426;2023-07-24T00:51:45;6.60;;;5.82;;
49730;SDS011;35622;52.008;5.426;2023-07-24T00:54:11;5.90;;;4.60;;
49730;SDS011;35622;52.008;5.426;2023-07-24T00:56:39;6.88;;;4.63;;
49730;SDS011;35622;52.008;5.426;2023-07-24T00:59:05;5.82;;;4.75;;
49730;SDS011;35622;52.008;5.426;2023-07-24T01:01:31;6.72;;;5.00;;
49730;SDS011;35622;52.008;5.426;2023-07-24T01:03:57;5.00;;;4.50;;
49730;SDS011;35622;52.008;5.426;2023-07-24T01:06:23;5.68;;;4.72;;
49730;SDS011;35622;52.008;5.426;2023-07-24T01:08:49;6.13;;;4.72;;
49730;SDS011;35622;52.008;5.426;2023-07-24T01:11:15;6.43;;;5.45;;
49730;SDS011;35622;52.008;5.426;2023-07-24T01:13:48;4.90;;;4.22;;
49730;SDS011;35622;52.008;5.426;2023-07-24T01:16:21;6.25;;;4.43;;
49730;SDS011;35622;52.008;5.426;2023-07-24T01:18:49;5.40;;;4.45;;
49730;SDS011;35622;52.008;5.426;2023-07-24T01:21:18;5.70;;;5.10;;
49730;SDS011;35622;52.008;5.426;2023-07-24T01:23:55;5.00;;;3.90;;
49730;SDS011;35622;52.008;5.426;2023-07-24T01:26:35;4.95;;;4.20;;
49730;SDS011;35622;52.008;5.426;2023-07-24T01:29:01;6.25;;;4.60;;
49730;SDS011;35622;52.008;5.426;2023-07-24T01:31:26;4.25;;;3.65;;
49730;SDS011;35622;52.008;5.426;2023-07-24T01:33:52;5.72;;;4.32;;
49730;SDS011;35622;52.008;5.426;2023-07-24T01:36:18;5.88;;;4.90;;
49730;SDS011;35622;52.008;5.426;2023-07-24T01:38:44;5.28;;;3.80;;
49730;SDS011;35622;52.008;5.426;2023-07-24T01:41:12;5.22;;;3.42;;
49730;SDS011;35622;52.008;5.426;2023-07-24T01:43:37;5.35;;;4.00;;
49730;SDS011;35622;52.008;5.426;2023-07-24T01:46:03;5.00;;;3.92;;
49730;SDS011;35622;52.008;5.426;2023-07-24T01:48:28;5.32;;;3.90;;
49730;SDS011;35622;52.008;5.426;2023-07-24T01:50:54;6.28;;;3.63;;
49730;SDS011;35622;52.008;5.426;2023-07-24T01:53:19;6.93;;;3.83;;
49730;SDS011;35622;52.008;5.426;2023-07-24T01:55:45;4.55;;;3.58;;
49730;SDS011;35622;52.008;5.426;2023-07-24T01:58:10;6.47;;;3.72;;
49730;SDS011;35622;52.008;5.426;2023-07-24T02:00:36;5.40;;;3.83;;
49730;SDS011;35622;52.008;5.426;2023-07-24T02:03:01;4.22;;;3.28;;
49730;SDS011;35622;52.008;5.426;2023-07-24T02:05:27;6.32;;;4.68;;
49730;SDS011;35622;52.008;5.426;2023-07-24T02:07:52;5.45;;;3.88;;
49730;SDS011;35622;52.008;5.426;2023-07-24T02:10:18;5.10;;;3.58;;
49730;SDS011;35622;52.008;5.426;2023-07-24T02:12:44;3.75;;;2.78;;
49730;SDS011;35622;52.008;5.426;2023-07-24T02:15:09;5.95;;;3.30;;
49730;SDS011;35622;52.008;5.426;2023-07-24T02:17:35;4.38;;;2.97;;
49730;SDS011;35622;52.008;5.426;2023-07-24T02:20:00;4.72;;;3.05;;
49730;SDS011;35622;52.008;5.426;2023-07-24T02:22:26;5.25;;;3.05;;
49730;SDS011;35622;52.008;5.426;2023-07-24T02:24:51;4.85;;;2.90;;
49730;SDS011;35622;52.008;5.426;2023-07-24T02:27:27;3.85;;;2.60;;
49730;SDS011;35622;52.008;5.426;2023-07-24T02:29:59;4.15;;;2.50;;
49730;SDS011;35622;52.008;5.426;2023-07-24T02:32:25;3.35;;;2.60;;
49730;SDS011;35622;52.008;5.426;2023-07-24T02:34:51;8.10;;;2.33;;
49730;SDS011;35622;52.008;5.426;2023-07-24T02:37:18;5.13;;;2.40;;
49730;SDS011;35622;52.008;5.426;2023-07-24T02:39:44;6.53;;;2.75;;
49730;SDS011;35622;52.008;5.426;2023-07-24T02:42:10;3.65;;;2.05;;
49730;SDS011;35622;52.008;5.426;2023-07-24T02:44:35;3.70;;;2.40;;
49730;SDS011;35622;52.008;5.426;2023-07-24T02:47:01;3.90;;;2.50;;
49730;SDS011;35622;52.008;5.426;2023-07-24T02:49:27;4.40;;;2.15;;
49730;SDS011;35622;52.008;5.426;2023-07-24T02:51:53;3.38;;;2.10;;
49730;SDS011;35622;52.008;5.426;2023-07-24T02:54:18;3.47;;;2.33;;
49730;SDS011;35622;52.008;5.426;2023-07-24T02:56:44;5.78;;;3.80;;
49730;SDS011;35622;52.008;5.426;2023-07-24T02:59:10;3.90;;;2.20;;
49730;SDS011;35622;52.008;5.426;2023-07-24T03:01:35;4.82;;;3.50;;
49730;SDS011;35622;52.008;5.426;2023-07-24T03:04:02;6.25;;;3.20;;
49730;SDS011;35622;52.008;5.426;2023-07-24T03:06:28;5.47;;;2.70;;
49730;SDS011;35622;52.008;5.426;2023-07-24T03:08:53;3.88;;;2.25;;
49730;SDS011;35622;52.008;5.426;2023-07-24T03:11:19;7.32;;;2.80;;
49730;SDS011;35622;52.008;5.426;2023-07-24T03:13:44;5.15;;;2.90;;
49730;SDS011;35622;52.008;5.426;2023-07-24T03:16:10;6.25;;;2.85;;
49730;SDS011;35622;52.008;5.426;2023-07-24T03:18:35;7.13;;;3.53;;
49730;SDS011;35622;52.008;5.426;2023-07-24T03:21:01;6.88;;;3.47;;
49730;SDS011;35622;52.008;5.426;2023-07-24T03:23:28;6.60;;;3.75;;
49730;SDS011;35622;52.008;5.426;2023-07-24T03:25:53;6.13;;;4.03;;
49730;SDS011;35622;52.008;5.426;2023-07-24T03:28:19;6.07;;;3.15;;
49730;SDS011;35622;52.008;5.426;2023-07-24T03:30:44;6.47;;;3.72;;
49730;SDS011;35622;52.008;5.426;2023-07-24T03:33:10;11.30;;;5.53;;
49730;SDS011;35622;52.008;5.426;2023-07-24T03:35:37;8.18;;;4.80;;
49730;SDS011;35622;52.008;5.426;2023-07-24T03:38:03;7.72;;;4.90;;
49730;SDS011;35622;52.008;5.426;2023-07-24T03:40:29;8.35;;;4.82;;
49730;SDS011;35622;52.008;5.426;2023-07-24T03:42:54;10.65;;;6.10;;
49730;SDS011;35622;52.008;5.426;2023-07-24T03:45:20;8.00;;;5.25;;
49730;SDS011;35622;52.008;5.426;2023-07-24T03:47:45;7.05;;;4.47;;
49730;SDS011;35622;52.008;5.426;2023-07-24T03:50:11;8.90;;;5.60;;
49730;SDS011;35622;52.008;5.426;2023-07-24T03:52:37;9.10;;;5.05;;
49730;SDS011;35622;52.008;5.426;2023-07-24T03:55:03;9.30;;;5.22;;
49730;SDS011;35622;52.008;5.426;2023-07-24T03:57:28;9.10;;;5.80;;
49730;SDS011;35622;52.008;5.426;2023-07-24T03:59:54;7.88;;;5.10;;
49730;SDS011;35622;52.008;5.426;2023-07-24T04:02:19;7.75;;;5.25;;
49730;SDS011;35622;52.008;5.426;2023-07-24T04:04:45;9.10;;;5.50;;
49730;SDS011;35622;52.008;5.426;2023-07-24T04:07:11;9.77;;;5.72;;
49730;SDS011;35622;52.008;5.426;2023-07-24T04:09:36;8.50;;;5.80;;
49730;SDS011;35622;52.008;5.426;2023-07-24T04:12:02;8.93;;;5.60;;
49730;SDS011;35622;52.008;5.426;2023-07-24T04:14:27;9.50;;;6.65;;
49730;SDS011;35622;52.008;5.426;2023-07-24T04:16:53;9.25;;;5.97;;
49730;SDS011;35622;52.008;5.426;2023-07-24T04:19:20;11.18;;;6.75;;
49730;SDS011;35622;52.008;5.426;2023-07-24T04:21:46;11.45;;;6.43;;
49730;SDS011;35622;52.008;5.426;2023-07-24T04:24:11;9.85;;;6.03;;
49730;SDS011;35622;52.008;5.426;2023-07-24T04:26:37;9.50;;;6.45;;
49730;SDS011;35622;52.008;5.426;2023-07-24T04:29:02;9.77;;;5.80;;
49730;SDS011;35622;52.008;5.426;2023-07-24T04:31:28;11.02;;;6.80;;
49730;SDS011;35622;52.008;5.426;2023-07-24T04:33:53;11.07;;;6.50;;
49730;SDS011;35622;52.008;5.426;2023-07-24T04:36:19;10.00;;;6.40;;
49730;SDS011;35622;52.008;5.426;2023-07-24T04:38:44;10.02;;;6.85;;
49730;SDS011;35622;52.008;5.426;2023-07-24T04:41:12;11.07;;;6.50;;
49730;SDS011;35622;52.008;5.426;2023-07-24T04:43:37;9.50;;;6.35;;
49730;SDS011;35622;52.008;5.426;2023-07-24T04:46:03;10.63;;;6.53;;
49730;SDS011;35622;52.008;5.426;2023-07-24T04:48:28;12.85;;;6.25;;
49730;SDS011;35622;52.008;5.426;2023-07-24T04:50:54;10.57;;;7.03;;
49730;SDS011;35622;52.008;5.426;2023-07-24T04:53:21;11.63;;;6.40;;
49730;SDS011;35622;52.008;5.426;2023-07-24T04:55:48;11.07;;;7.47;;
49730;SDS011;35622;52.008;5.426;2023-07-24T04:58:13;9.85;;;6.85;;
49730;SDS011;35622;52.008;5.426;2023-07-24T05:00:39;8.88;;;6.10;;
49730;SDS011;35622;52.008;5.426;2023-07-24T05:03:04;9.55;;;6.45;;
49730;SDS011;35622;52.008;5.426;2023-07-24T05:05:31;11.70;;;7.30;;
49730;SDS011;35622;52.008;5.426;2023-07-24T05:07:57;11.93;;;6.82;;
49730;SDS011;35622;52.008;5.426;2023-07-24T05:10:22;10.88;;;6.70;;
49730;SDS011;35622;52.008;5.426;2023-07-24T05:12:48;10.27;;;6.78;;
49730;SDS011;35622;52.008;5.426;2023-07-24T05:15:13;12.80;;;7.45;;
49730;SDS011;35622;52.008;5.426;2023-07-24T05:17:41;12.32;;;7.57;;
49730;SDS011;35622;52.008;5.426;2023-07-24T05:20:08;12.27;;;7.35;;
49730;SDS011;35622;52.008;5.426;2023-07-24T05:22:34;13.40;;;7.35;;
49730;SDS011;35622;52.008;5.426;2023-07-24T05:24:59;11.82;;;7.75;;
49730;SDS011;35622;52.008;5.426;2023-07-24T05:27:25;11.43;;;7.60;;
49730;SDS011;35622;52.008;5.426;2023-07-24T05:29:51;11.93;;;7.32;;
49730;SDS011;35622;52.008;5.426;2023-07-24T05:32:16;13.57;;;7.38;;
49730;SDS011;35622;52.008;5.426;2023-07-24T05:34:42;11.68;;;7.85;;
49730;SDS011;35622;52.008;5.426;2023-07-24T05:37:08;11.45;;;7.32;;
49730;SDS011;35622;52.008;5.426;2023-07-24T05:39:33;11.35;;;7.03;;
49730;SDS011;35622;52.008;5.426;2023-07-24T05:41:59;13.40;;;7.38;;
49730;SDS011;35622;52.008;5.426;2023-07-24T05:44:24;12.32;;;7.35;;
49730;SDS011;35622;52.008;5.426;2023-07-24T05:46:50;12.85;;;7.28;;
49730;SDS011;35622;52.008;5.426;2023-07-24T05:49:16;10.75;;;7.13;;
49730;SDS011;35622;52.008;5.426;2023-07-24T05:51:41;12.02;;;7.32;;
49730;SDS011;35622;52.008;5.426;2023-07-24T05:54:07;10.52;;;7.18;;
49730;SDS011;35622;52.008;5.426;2023-07-24T05:56:32;12.50;;;7.18;;
49730;SDS011;35622;52.008;5.426;2023-07-24T05:58:58;12.57;;;7.53;;
49730;SDS011;35622;52.008;5.426;2023-07-24T06:01:23;13.23;;;7.82;;
49730;SDS011;35622;52.008;5.426;2023-07-24T06:03:49;12.82;;;7.55;;
49730;SDS011;35622;52.008;5.426;2023-07-24T06:06:14;11.98;;;7.95;;
49730;SDS011;35622;52.008;5.426;2023-07-24T06:08:40;12.52;;;7.40;;
49730;SDS011;35622;52.008;5.426;2023-07-24T06:11:05;12.30;;;7.50;;
49730;SDS011;35622;52.008;5.426;2023-07-24T06:13:31;11.95;;;7.57;;
49730;SDS011;35622;52.008;5.426;2023-07-24T06:15:57;11.43;;;7.90;;
49730;SDS011;35622;52.008;5.426;2023-07-24T06:18:22;15.60;;;8.07;;
49730;SDS011;35622;52.008;5.426;2023-07-24T06:20:52;11.25;;;7.80;;
49730;SDS011;35622;52.008;5.426;2023-07-24T06:23:18;11.10;;;7.22;;
49730;SDS011;35622;52.008;5.426;2023-07-24T06:25:44;12.32;;;7.45;;
49730;SDS011;35622;52.008;5.426;2023-07-24T06:28:10;10.60;;;7.38;;
49730;SDS011;35622;52.008;5.426;2023-07-24T06:30:37;10.60;;;8.00;;
49730;SDS011;35622;52.008;5.426;2023-07-24T06:33:03;9.27;;;7.03;;
49730;SDS011;35622;52.008;5.426;2023-07-24T06:35:29;11.18;;;7.28;;
49730;SDS011;35622;52.008;5.426;2023-07-24T06:37:55;11.20;;;8.13;;
49730;SDS011;35622;52.008;5.426;2023-07-24T06:40:21;13.45;;;7.88;;
49730;SDS011;35622;52.008;5.426;2023-07-24T06:42:46;12.93;;;8.63;;
49730;SDS011;35622;52.008;5.426;2023-07-24T06:45:12;11.98;;;8.15;;
49730;SDS011;35622;52.008;5.426;2023-07-24T06:47:38;12.00;;;8.05;;
49730;SDS011;35622;52.008;5.426;2023-07-24T06:50:03;11.98;;;8.10;;
49730;SDS011;35622;52.008;5.426;2023-07-24T06:52:29;11.50;;;8.13;;
49730;SDS011;35622;52.008;5.426;2023-07-24T06:54:56;10.57;;;7.95;;
49730;SDS011;35622;52.008;5.426;2023-07-24T06:57:23;11.02;;;7.38;;
49730;SDS011;35622;52.008;5.426;2023-07-24T06:59:49;11.40;;;6.65;;
49730;SDS011;35622;52.008;5.426;2023-07-24T07:02:14;10.93;;;8.27;;
49730;SDS011;35622;52.008;5.426;2023-07-24T07:04:40;9.40;;;7.10;;
49730;SDS011;35622;52.008;5.426;2023-07-24T07:07:05;11.43;;;8.00;;
49730;SDS011;35622;52.008;5.426;2023-07-24T07:09:31;9.35;;;7.80;;
49730;SDS011;35622;52.008;5.426;2023-07-24T07:11:56;11.50;;;8.77;;
49730;SDS011;35622;52.008;5.426;2023-07-24T07:14:22;13.52;;;7.97;;
49730;SDS011;35622;52.008;5.426;2023-07-24T07:16:47;9.80;;;7.20;;
49730;SDS011;35622;52.008;5.426;2023-07-24T07:19:13;12.88;;;8.07;;
49730;SDS011;35622;52.008;5.426;2023-07-24T07:21:39;10.00;;;8.15;;
49730;SDS011;35622;52.008;5.426;2023-07-24T07:24:04;11.95;;;8.60;;
49730;SDS011;35622;52.008;5.426;2023-07-24T07:26:30;15.05;;;8.95;;
49730;SDS011;35622;52.008;5.426;2023-07-24T07:28:56;11.65;;;8.15;;
49730;SDS011;35622;52.008;5.426;2023-07-24T07:31:21;8.65;;;7.50;;
49730;SDS011;35622;52.008;5.426;2023-07-24T07:33:47;9.25;;;7.20;;
49730;SDS011;35622;52.008;5.426;2023-07-24T07:36:13;9.00;;;7.20;;
49730;SDS011;35622;52.008;5.426;2023-07-24T07:38:39;8.48;;;7.20;;
49730;SDS011;35622;52.008;5.426;2023-07-24T07:41:05;10.20;;;7.57;;
49730;SDS011;35622;52.008;5.426;2023-07-24T07:43:31;11.20;;;8.13;;
49730;SDS011;35622;52.008;5.426;2023-07-24T07:45:57;11.15;;;8.05;;
49730;SDS011;35622;52.008;5.426;2023-07-24T07:48:24;11.07;;;8.13;;
49730;SDS011;35622;52.008;5.426;2023-07-24T07:50:50;13.77;;;8.30;;
49730;SDS011;35622;52.008;5.426;2023-07-24T07:53:16;12.23;;;8.48;;
49730;SDS011;35622;52.008;5.426;2023-07-24T07:55:42;15.32;;;8.98;;
49730;SDS011;35622;52.008;5.426;2023-07-24T07:58:07;11.45;;;8.48;;
49730;SDS011;35622;52.008;5.426;2023-07-24T08:00:33;11.80;;;9.05;;
49730;SDS011;35622;52.008;5.426;2023-07-24T08:02:59;13.07;;;9.73;;
49730;SDS011;35622;52.008;5.426;2023-07-24T08:05:24;13.05;;;8.77;;
49730;SDS011;35622;52.008;5.426;2023-07-24T08:07:50;11.30;;;8.40;;
49730;SDS011;35622;52.008;5.426;2023-07-24T08:10:16;8.35;;;7.10;;
49730;SDS011;35622;52.008;5.426;2023-07-24T08:12:41;8.45;;;7.03;;
49730;SDS011;35622;52.008;5.426;2023-07-24T08:15:07;10.10;;;7.45;;
49730;SDS011;35622;52.008;5.426;2023-07-24T08:17:33;10.05;;;7.57;;
49730;SDS011;35622;52.008;5.426;2023-07-24T08:19:59;9.63;;;7.63;;
49730;SDS011;35622;52.008;5.426;2023-07-24T08:22:24;9.52;;;6.97;;
49730;SDS011;35622;52.008;5.426;2023-07-24T08:24:50;11.30;;;8.02;;
49730;SDS011;35622;52.008;5.426;2023-07-24T08:27:16;9.93;;;7.72;;
49730;SDS011;35622;52.008;5.426;2023-07-24T08:29:42;11.10;;;7.78;;
49730;SDS011;35622;52.008;5.426;2023-07-24T08:32:08;10.30;;;7.43;;
49730;SDS011;35622;52.008;5.426;2023-07-24T08:34:33;11.15;;;7.50;;
49730;SDS011;35622;52.008;5.426;2023-07-24T08:36:59;12.23;;;7.88;;
49730;SDS011;35622;52.008;5.426;2023-07-24T08:39:24;10.02;;;8.32;;
49730;SDS011;35622;52.008;5.426;2023-07-24T08:41:50;11.57;;;8.48;;
49730;SDS011;35622;52.008;5.426;2023-07-24T08:44:15;10.65;;;8.90;;
49730;SDS011;35622;52.008;5.426;2023-07-24T08:46:41;11.05;;;8.73;;
49730;SDS011;35622;52.008;5.426;2023-07-24T08:49:11;12.93;;;9.00;;
49730;SDS011;35622;52.008;5.426;2023-07-24T08:51:38;9.93;;;8.02;;
49730;SDS011;35622;52.008;5.426;2023-07-24T08:54:08;11.82;;;9.65;;
49730;SDS011;35622;52.008;5.426;2023-07-24T08:56:36;11.57;;;8.23;;
49730;SDS011;35622;52.008;5.426;2023-07-24T08:59:02;10.80;;;8.40;;
49730;SDS011;35622;52.008;5.426;2023-07-24T09:01:28;9.50;;;7.65;;
49730;SDS011;35622;52.008;5.426;2023-07-24T09:03:54;9.48;;;7.80;;
49730;SDS011;35622;52.008;5.426;2023-07-24T09:06:20;11.50;;;7.50;;
49730;SDS011;35622;52.008;5.426;2023-07-24T09:08:46;14.77;;;9.98;;
49730;SDS011;35622;52.008;5.426;2023-07-24T09:11:13;12.02;;;9.10;;
49730;SDS011;35622;52.008;5.426;2023-07-24T09:13:40;10.05;;;8.15;;
49730;SDS011;35622;52.008;5.426;2023-07-24T09:16:07;10.38;;;8.32;;
49730;SDS011;35622;52.008;5.426;2023-07-24T09:18:39;9.13;;;7.45;;
49730;SDS011;35622;52.008;5.426;2023-07-24T09:21:06;10.80;;;7.38;;
49730;SDS011;35622;52.008;5.426;2023-07-24T09:23:31;9.32;;;6.63;;
49730;SDS011;35622;52.008;5.426;2023-07-24T09:25:57;12.02;;;7.63;;
49730;SDS011;35622;52.008;5.426;2023-07-24T09:28:24;10.52;;;6.40;;
49730;SDS011;35622;52.008;5.426;2023-07-24T09:30:53;9.35;;;6.57;;
49730;SDS011;35622;52.008;5.426;2023-07-24T09:33:22;9.52;;;7.15;;
49730;SDS011;35622;52.008;5.426;2023-07-24T09:38:25;10.15;;;7.30;;
49730;SDS011;35622;52.008;5.426;2023-07-24T09:40:51;6.95;;;6.22;;
49730;SDS011;35622;52.008;5.426;2023-07-24T09:43:19;9.77;;;7.00;;
49730;SDS011;35622;52.008;5.426;2023-07-24T09:45:46;7.55;;;6.40;;
49730;SDS011;35622;52.008;5.426;2023-07-24T09:48:13;13.00;;;6.78;;
49730;SDS011;35622;52.008;5.426;2023-07-24T09:50:40;10.32;;;6.65;;
49730;SDS011;35622;52.008;5.426;2023-07-24T09:53:08;9.43;;;5.78;;
49730;SDS011;35622;52.008;5.426;2023-07-24T09:55:56;8.68;;;6.80;;
49730;SDS011;35622;52.008;5.426;2023-07-24T09:58:33;8.02;;;5.78;;
49730;SDS011;35622;52.008;5.426;2023-07-24T10:01:02;6.65;;;5.10;;
49730;SDS011;35622;52.008;5.426;2023-07-24T10:03:30;7.68;;;5.90;;
49730;SDS011;35622;52.008;5.426;2023-07-24T10:05:57;7.28;;;5.10;;
49730;SDS011;35622;52.008;5.426;2023-07-24T10:08:23;7.05;;;5.25;;
49730;SDS011;35622;52.008;5.426;2023-07-24T10:10:50;7.88;;;5.65;;
49730;SDS011;35622;52.008;5.426;2023-07-24T10:13:18;7.15;;;4.97;;
49730;SDS011;35622;52.008;5.426;2023-07-24T10:15:48;7.63;;;5.38;;
49730;SDS011;35622;52.008;5.426;2023-07-24T10:18:16;7.90;;;5.22;;
49730;SDS011;35622;52.008;5.426;2023-07-24T10:20:59;8.23;;;5.32;;
49730;SDS011;35622;52.008;5.426;2023-07-24T10:23:28;8.15;;;5.50;;
49730;SDS011;35622;52.008;5.426;2023-07-24T10:26:01;11.70;;;5.32;;
49730;SDS011;35622;52.008;5.426;2023-07-24T10:28:33;7.70;;;4.57;;
49730;SDS011;35622;52.008;5.426;2023-07-24T10:31:25;5.43;;;4.60;;
49730;SDS011;35622;52.008;5.426;2023-07-24T10:33:53;8.07;;;5.25;;
49730;SDS011;35622;52.008;5.426;2023-07-24T10:36:21;7.10;;;4.70;;
49730;SDS011;35622;52.008;5.426;2023-07-24T10:38:57;6.97;;;5.03;;
49730;SDS011;35622;52.008;5.426;2023-07-24T10:41:23;6.57;;;4.78;;
49730;SDS011;35622;52.008;5.426;2023-07-24T10:44:00;6.78;;;4.93;;
49730;SDS011;35622;52.008;5.426;2023-07-24T10:46:34;5.43;;;4.40;;
49730;SDS011;35622;52.008;5.426;2023-07-24T10:49:11;6.63;;;4.85;;
49730;SDS011;35622;52.008;5.426;2023-07-24T10:51:37;5.30;;;4.10;;
49730;SDS011;35622;52.008;5.426;2023-07-24T10:54:03;7.60;;;4.40;;
49730;SDS011;35622;52.008;5.426;2023-07-24T10:56:30;7.35;;;4.75;;
49730;SDS011;35622;52.008;5.426;2023-07-24T10:58:56;7.00;;;4.03;;
49730;SDS011;35622;52.008;5.426;2023-07-24T11:01:21;5.18;;;4.18;;
49730;SDS011;35622;52.008;5.426;2023-07-24T11:03:48;7.82;;;4.50;;
49730;SDS011;35622;52.008;5.426;2023-07-24T11:06:15;8.40;;;5.47;;
49730;SDS011;35622;52.008;5.426;2023-07-24T11:08:42;7.80;;;4.90;;
49730;SDS011;35622;52.008;5.426;2023-07-24T11:11:16;7.72;;;5.22;;
49730;SDS011;35622;52.008;5.426;2023-07-24T11:13:41;7.72;;;5.50;;
49730;SDS011;35622;52.008;5.426;2023-07-24T11:16:07;8.38;;;5.72;;
49730;SDS011;35622;52.008;5.426;2023-07-24T11:18:43;8.75;;;5.35;;
49730;SDS011;35622;52.008;5.426;2023-07-24T11:21:13;5.97;;;4.70;;
49730;SDS011;35622;52.008;5.426;2023-07-24T11:23:46;6.45;;;5.15;;
49730;SDS011;35622;52.008;5.426;2023-07-24T11:26:12;8.60;;;5.38;;
49730;SDS011;35622;52.008;5.426;2023-07-24T11:28:39;8.05;;;4.80;;
49730;SDS011;35622;52.008;5.426;2023-07-24T11:31:05;6.25;;;5.53;;
49730;SDS011;35622;52.008;5.426;2023-07-24T11:33:31;8.82;;;5.80;;
49730;SDS011;35622;52.008;5.426;2023-07-24T11:35:57;8.57;;;5.45;;
49730;SDS011;35622;52.008;5.426;2023-07-24T11:38:23;8.18;;;5.40;;
49730;SDS011;35622;52.008;5.426;2023-07-24T11:40:49;8.70;;;6.65;;
49730;SDS011;35622;52.008;5.426;2023-07-24T11:43:19;10.18;;;7.10;;
49730;SDS011;35622;52.008;5.426;2023-07-24T11:45:46;9.98;;;7.88;;
49730;SDS011;35622;52.008;5.426;2023-07-24T11:48:19;8.00;;;6.95;;
49730;SDS011;35622;52.008;5.426;2023-07-24T11:50:47;8.27;;;6.97;;
49730;SDS011;35622;52.008;5.426;2023-07-24T11:53:20;9.40;;;6.88;;
49730;SDS011;35622;52.008;5.426;2023-07-24T11:55:54;14.70;;;8.60;;
49730;SDS011;35622;52.008;5.426;2023-07-24T11:58:21;8.50;;;6.82;;
49730;SDS011;35622;52.008;5.426;2023-07-24T12:00:48;10.38;;;7.65;;
49730;SDS011;35622;52.008;5.426;2023-07-24T12:03:35;13.90;;;9.70;;
49730;SDS011;35622;52.008;5.426;2023-07-24T12:06:00;11.63;;;9.63;;
49730;SDS011;35622;52.008;5.426;2023-07-24T12:08:32;12.18;;;9.75;;
49730;SDS011;35622;52.008;5.426;2023-07-24T12:10:59;16.33;;;10.57;;
49730;SDS011;35622;52.008;5.426;2023-07-24T12:13:25;14.77;;;10.88;;
49730;SDS011;35622;52.008;5.426;2023-07-24T12:15:50;15.52;;;11.77;;
49730;SDS011;35622;52.008;5.426;2023-07-24T12:18:16;14.80;;;11.70;;
49730;SDS011;35622;52.008;5.426;2023-07-24T12:20:41;13.70;;;11.75;;
49730;SDS011;35622;52.008;5.426;2023-07-24T12:23:07;12.80;;;11.27;;
49730;SDS011;35622;52.008;5.426;2023-07-24T12:25:32;13.75;;;11.02;;
49730;SDS011;35622;52.008;5.426;2023-07-24T12:27:58;14.27;;;12.38;;
49730;SDS011;35622;52.008;5.426;2023-07-24T12:30:29;13.95;;;10.73;;
49730;SDS011;35622;52.008;5.426;2023-07-24T12:32:55;11.98;;;10.25;;
49730;SDS011;35622;52.008;5.426;2023-07-24T12:35:21;12.40;;;9.85;;
49730;SDS011;35622;52.008;5.426;2023-07-24T12:37:46;12.23;;;9.50;;
49730;SDS011;35622;52.008;5.426;2023-07-24T12:40:12;13.00;;;8.85;;
49730;SDS011;35622;52.008;5.426;2023-07-24T12:42:38;9.07;;;8.02;;
49730;SDS011;35622;52.008;5.426;2023-07-24T12:45:04;9.65;;;8.23;;
49730;SDS011;35622;52.008;5.426;2023-07-24T12:47:30;12.00;;;8.85;;
49730;SDS011;35622;52.008;5.426;2023-07-24T12:49:56;9.90;;;8.90;;
49730;SDS011;35622;52.008;5.426;2023-07-24T12:52:23;9.98;;;8.93;;
49730;SDS011;35622;52.008;5.426;2023-07-24T12:54:49;11.15;;;9.80;;
49730;SDS011;35622;52.008;5.426;2023-07-24T12:57:15;12.35;;;9.23;;
49730;SDS011;35622;52.008;5.426;2023-07-24T12:59:41;10.68;;;9.57;;
49730;SDS011;35622;52.008;5.426;2023-07-24T13:02:06;13.18;;;9.18;;
49730;SDS011;35622;52.008;5.426;2023-07-24T13:04:32;12.82;;;8.98;;
49730;SDS011;35622;52.008;5.426;2023-07-24T13:06:57;11.48;;;8.85;;
49730;SDS011;35622;52.008;5.426;2023-07-24T13:09:25;11.45;;;8.55;;
49730;SDS011;35622;52.008;5.426;2023-07-24T13:11:51;10.45;;;8.10;;
49730;SDS011;35622;52.008;5.426;2023-07-24T13:14:19;9.90;;;8.02;;
49730;SDS011;35622;52.008;5.426;2023-07-24T13:16:45;10.57;;;7.53;;
49730;SDS011;35622;52.008;5.426;2023-07-24T13:19:10;8.88;;;7.97;;
49730;SDS011;35622;52.008;5.426;2023-07-24T13:21:36;11.15;;;8.60;;
49730;SDS011;35622;52.008;5.426;2023-07-24T13:24:01;10.30;;;8.32;;
49730;SDS011;35622;52.008;5.426;2023-07-24T13:26:27;12.18;;;8.52;;
49730;SDS011;35622;52.008;5.426;2023-07-24T13:28:53;8.48;;;7.55;;
49730;SDS011;35622;52.008;5.426;2023-07-24T13:31:19;9.60;;;7.85;;
49730;SDS011;35622;52.008;5.426;2023-07-24T13:33:46;9.27;;;8.25;;
49730;SDS011;35622;52.008;5.426;2023-07-24T13:36:11;10.10;;;8.27;;
49730;SDS011;35622;52.008;5.426;2023-07-24T13:38:37;9.82;;;7.80;;
49730;SDS011;35622;52.008;5.426;2023-07-24T13:41:03;8.82;;;7.50;;
49730;SDS011;35622;52.008;5.426;2023-07-24T13:43:29;8.90;;;7.57;;
49730;SDS011;35622;52.008;5.426;2023-07-24T13:45:55;7.40;;;6.22;;
49730;SDS011;35622;52.008;5.426;2023-07-24T13:48:21;7.43;;;6.65;;
49730;SDS011;35622;52.008;5.426;2023-07-24T13:50:47;9.50;;;6.68;;
49730;SDS011;35622;52.008;5.426;2023-07-24T13:53:14;7.90;;;6.50;;
49730;SDS011;35622;52.008;5.426;2023-07-24T13:55:39;7.30;;;5.72;;
49730;SDS011;35622;52.008;5.426;2023-07-24T13:58:05;9.05;;;6.40;;
49730;SDS011;35622;52.008;5.426;2023-07-24T14:00:30;9.32;;;6.50;;
49730;SDS011;35622;52.008;5.426;2023-07-24T14:02:56;7.80;;;6.68;;
49730;SDS011;35622;52.008;5.426;2023-07-24T14:05:21;8.85;;;6.38;;
49730;SDS011;35622;52.008;5.426;2023-07-24T14:07:47;8.13;;;6.90;;
49730;SDS011;35622;52.008;5.426;2023-07-24T14:10:13;7.78;;;6.15;;
49730;SDS011;35622;52.008;5.426;2023-07-24T14:12:38;7.45;;;6.32;;
49730;SDS011;35622;52.008;5.426;2023-07-24T14:15:04;8.88;;;6.50;;
49730;SDS011;35622;52.008;5.426;2023-07-24T14:17:30;8.20;;;6.13;;
49730;SDS011;35622;52.008;5.426;2023-07-24T14:19:55;10.77;;;7.10;;
49730;SDS011;35622;52.008;5.426;2023-07-24T14:22:21;8.23;;;5.93;;
49730;SDS011;35622;52.008;5.426;2023-07-24T14:24:47;7.82;;;6.15;;
49730;SDS011;35622;52.008;5.426;2023-07-24T14:27:15;12.27;;;6.50;;
49730;SDS011;35622;52.008;5.426;2023-07-24T14:29:41;9.18;;;6.55;;
49730;SDS011;35622;52.008;5.426;2023-07-24T14:32:07;7.05;;;6.05;;
49730;SDS011;35622;52.008;5.426;2023-07-24T14:34:32;9.57;;;6.80;;
49730;SDS011;35622;52.008;5.426;2023-07-24T14:36:58;7.30;;;6.18;;
49730;SDS011;35622;52.008;5.426;2023-07-24T14:39:24;11.48;;;7.93;;
49730;SDS011;35622;52.008;5.426;2023-07-24T14:41:49;8.40;;;6.53;;